createdAt,value
2023-07-04T00:03:46.338Z,13.70
2023-07-04T00:09:11.102Z,13.60
2023-07-04T00:14:32.555Z,13.60
2023-07-04T00:19:54.223Z,13.60
2023-07-04T00:25:15.505Z,13.50
2023-07-04T00:30:37.068Z,13.40
2023-07-04T00:36:06.943Z,13.20
2023-07-04T00:41:30.495Z,13.30
2023-07-04T00:47:12.302Z,13.30
2023-07-04T00:52:36.687Z,13.30
2023-07-04T00:57:58.768Z,13.30
2023-07-04T01:03:22.301Z,13.30
2023-07-04T01:08:47.575Z,13.40
2023-07-04T01:14:25.813Z,13.40
2023-07-04T01:19:47.631Z,13.40
2023-07-04T01:25:46.596Z,13.40
2023-07-04T01:31:08.369Z,13.40
2023-07-04T01:36:32.427Z,13.50
2023-07-04T01:41:53.915Z,13.50
2023-07-04T01:47:15.828Z,13.40
2023-07-04T01:52:37.882Z,13.50
2023-07-04T01:57:59.232Z,13.50
2023-07-04T02:03:20.964Z,13.50
2023-07-04T02:08:42.381Z,13.40
2023-07-04T02:14:03.891Z,13.40
2023-07-04T02:19:25.358Z,13.40
2023-07-04T02:24:48.360Z,13.30
2023-07-04T02:30:10.315Z,13.20
2023-07-04T02:35:32.244Z,13.20
2023-07-04T02:40:53.953Z,13.10
2023-07-04T02:46:15.987Z,13.10
2023-07-04T02:51:42.505Z,13.20
2023-07-04T02:57:04.196Z,13.10
2023-07-04T03:02:26.631Z,13.10
2023-07-04T03:07:51.166Z,13.10
2023-07-04T03:13:14.444Z,13.00
2023-07-04T03:18:36.089Z,13.10
2023-07-04T03:23:58.068Z,13.10
2023-07-04T03:29:19.879Z,13.20
2023-07-04T03:34:41.975Z,13.20
2023-07-04T03:40:08.081Z,13.30
2023-07-04T03:45:30.833Z,13.40
2023-07-04T03:50:53.747Z,13.50
2023-07-04T03:56:16.574Z,13.60
2023-07-04T04:01:38.162Z,13.70
2023-07-04T04:06:59.961Z,13.80
2023-07-04T04:12:21.410Z,13.90
2023-07-04T04:17:43.248Z,14.10
2023-07-04T04:23:04.674Z,14.30
2023-07-04T04:28:26.280Z,14.40
2023-07-04T04:33:48.856Z,14.70
2023-07-04T04:39:10.329Z,14.90
2023-07-04T04:44:32.004Z,15.00
2023-07-04T04:49:53.957Z,15.20
2023-07-04T04:55:16.249Z,15.40
2023-07-04T05:00:37.592Z,15.60
2023-07-04T05:06:02.618Z,15.80
2023-07-04T05:11:24.234Z,16.00
2023-07-04T05:16:45.715Z,16.20
2023-07-04T05:22:07.341Z,16.50
2023-07-04T05:27:28.919Z,16.70
2023-07-04T05:32:50.676Z,16.80
2023-07-04T05:38:12.147Z,17.00
2023-07-04T05:43:33.428Z,17.20
2023-07-04T05:48:55.474Z,17.30
2023-07-04T05:54:16.866Z,17.40
2023-07-04T05:59:38.275Z,17.80
2023-07-04T06:04:59.687Z,18.00
2023-07-04T06:10:21.858Z,18.00
2023-07-04T06:15:43.231Z,18.30
2023-07-04T06:21:09.997Z,18.40
2023-07-04T06:26:33.472Z,18.40
2023-07-04T06:31:55.006Z,18.50
2023-07-04T06:37:16.639Z,18.70
2023-07-04T06:42:38.096Z,18.90
2023-07-04T06:48:01.359Z,19.20
2023-07-04T06:53:22.902Z,19.20
2023-07-04T06:58:49.517Z,19.60
2023-07-04T07:04:13.966Z,19.80
2023-07-04T07:09:44.155Z,19.60
2023-07-04T07:15:06.342Z,19.60
2023-07-04T07:20:27.881Z,19.60
2023-07-04T07:26:00.305Z,19.80
2023-07-04T07:36:49.240Z,19.70
2023-07-04T07:42:12.209Z,19.80
2023-07-04T07:47:33.925Z,19.90
2023-07-04T07:52:55.348Z,19.90
2023-07-04T07:58:16.712Z,20.10
2023-07-04T08:03:38.479Z,20.30
2023-07-04T08:09:02.949Z,20.40
2023-07-04T08:14:25.632Z,20.50
2023-07-04T08:19:47.092Z,20.30
2023-07-04T08:25:08.895Z,20.50
2023-07-04T08:30:31.739Z,20.80
2023-07-04T08:35:58.179Z,21.10
2023-07-04T08:41:47.825Z,21.10
2023-07-04T08:47:12.210Z,21.50
2023-07-04T08:52:45.534Z,21.60
2023-07-04T08:58:10.094Z,21.70
2023-07-04T09:03:58.433Z,21.90
2023-07-04T09:09:38.674Z,22.40
2023-07-04T09:15:28.892Z,22.30
2023-07-04T09:21:10.676Z,22.50
2023-07-04T09:26:48.330Z,22.30
2023-07-04T09:32:10.463Z,22.60
2023-07-04T09:37:32.171Z,22.70
2023-07-04T09:42:54.141Z,22.90
2023-07-04T09:48:24.146Z,23.10
2023-07-04T09:53:45.666Z,23.40
2023-07-04T09:59:20.535Z,23.00
2023-07-04T10:04:42.411Z,23.20
2023-07-04T10:10:07.484Z,23.20
2023-07-04T10:15:38.578Z,23.00
2023-07-04T10:21:02.277Z,23.10
2023-07-04T10:26:23.788Z,23.50
2023-07-04T10:31:45.975Z,23.60
2023-07-04T10:37:10.673Z,23.90
2023-07-04T10:42:46.896Z,23.90
2023-07-04T10:48:13.808Z,24.20
2023-07-04T10:53:35.030Z,24.30
2023-07-04T10:59:02.434Z,24.50
2023-07-04T11:04:33.034Z,24.20
2023-07-04T11:09:58.917Z,24.40
2023-07-04T11:15:33.056Z,24.60
2023-07-04T11:21:30.373Z,24.60
2023-07-04T11:27:06.852Z,24.80
2023-07-04T11:32:33.857Z,24.30
2023-07-04T11:38:03.802Z,24.70
2023-07-04T11:43:52.206Z,24.70
2023-07-04T11:49:20.809Z,24.80
2023-07-04T11:54:42.506Z,24.90
2023-07-04T12:00:04.694Z,24.70
2023-07-04T12:05:35.049Z,24.30
2023-07-04T12:11:02.871Z,24.30
2023-07-04T12:16:25.489Z,25.00
2023-07-04T12:21:51.921Z,25.10
2023-07-04T12:27:13.560Z,25.20
2023-07-04T12:32:38.581Z,24.50
2023-07-04T12:38:01.081Z,24.30
2023-07-04T12:54:15.742Z,24.40
2023-07-04T12:59:41.460Z,24.40
2023-07-04T13:05:05.843Z,24.50
2023-07-04T13:10:32.690Z,25.00
2023-07-04T13:16:30.040Z,25.40
2023-07-04T13:21:51.726Z,25.60
2023-07-04T13:27:25.501Z,25.80
2023-07-04T13:33:00.069Z,25.30
2023-07-04T13:45:12.016Z,25.30
2023-07-04T13:49:28.908Z,25.50
2023-07-04T13:54:50.588Z,25.60
2023-07-04T14:00:13.740Z,25.20
2023-07-04T14:05:43.957Z,25.10
2023-07-04T14:11:16.038Z,24.50
2023-07-04T14:16:42.697Z,24.70
2023-07-04T14:22:19.050Z,24.40
2023-07-04T14:27:40.627Z,24.60
2023-07-04T14:33:02.419Z,24.90
2023-07-04T14:38:24.546Z,25.10
2023-07-04T14:43:46.163Z,24.90
2023-07-04T14:49:07.843Z,25.30
2023-07-04T14:54:28.989Z,25.50
2023-07-04T14:59:51.330Z,25.50
2023-07-04T15:05:13.822Z,25.50
2023-07-04T15:10:35.638Z,25.20
2023-07-04T15:16:05.207Z,25.00
2023-07-04T15:21:26.593Z,25.00
2023-07-04T15:26:48.754Z,25.30
2023-07-04T15:32:10.482Z,25.20
2023-07-04T15:37:31.836Z,25.50
2023-07-04T15:42:54.138Z,25.50
2023-07-04T15:48:16.802Z,25.60
2023-07-04T15:53:38.728Z,25.50
2023-07-04T15:59:00.534Z,25.60
2023-07-04T16:04:22.025Z,25.80
2023-07-04T16:09:46.970Z,25.60
2023-07-04T16:15:08.839Z,25.30
2023-07-04T16:20:30.593Z,25.40
2023-07-04T16:25:52.711Z,25.20
2023-07-04T16:31:14.551Z,25.50
2023-07-04T16:36:35.926Z,25.50
2023-07-04T16:41:59.770Z,25.20
2023-07-04T16:47:20.963Z,25.10
2023-07-04T16:52:42.582Z,24.80
2023-07-04T16:58:05.603Z,24.80
2023-07-04T17:03:28.877Z,24.60
2023-07-04T17:08:50.478Z,24.50
2023-07-04T17:14:12.006Z,24.50
2023-07-04T17:19:33.557Z,24.40
2023-07-04T17:25:11.338Z,24.30
2023-07-04T17:30:34.697Z,24.30
2023-07-04T17:36:13.464Z,24.30
2023-07-04T17:41:35.683Z,24.10
2023-07-04T17:46:57.243Z,24.20
2023-07-04T17:52:18.773Z,24.10
2023-07-04T17:57:40.428Z,24.00
2023-07-04T18:03:01.938Z,24.00
2023-07-04T18:08:23.556Z,23.90
2023-07-04T18:13:46.560Z,23.90
2023-07-04T18:19:08.265Z,23.70
2023-07-04T18:24:29.746Z,23.50
2023-07-04T18:29:53.259Z,23.30
2023-07-04T18:35:15.173Z,23.20
2023-07-04T18:40:41.747Z,22.90
2023-07-04T18:46:03.340Z,22.60
2023-07-04T18:51:36.892Z,22.20
2023-07-04T18:56:59.124Z,21.80
2023-07-04T19:02:20.555Z,21.50
2023-07-04T19:07:42.295Z,21.10
2023-07-04T19:13:03.786Z,20.70
2023-07-04T19:18:25.927Z,20.40
2023-07-04T19:23:47.154Z,20.10
2023-07-04T19:29:08.857Z,19.80
2023-07-04T19:34:31.179Z,19.50
2023-07-04T19:39:52.616Z,19.20
2023-07-04T19:45:14.272Z,18.90
2023-07-04T19:50:35.758Z,18.70
2023-07-04T19:56:02.469Z,18.40
2023-07-04T20:01:29.576Z,18.20
2023-07-04T20:06:51.269Z,17.90
2023-07-04T20:12:12.974Z,17.70
2023-07-04T20:17:34.314Z,17.40
2023-07-04T20:22:55.764Z,17.20
2023-07-04T20:28:17.454Z,17.00
2023-07-04T20:33:39.554Z,16.70
2023-07-04T20:39:01.054Z,16.50
2023-07-04T20:44:22.793Z,16.20
2023-07-04T20:49:44.489Z,16.00
2023-07-04T20:55:09.529Z,15.80
2023-07-04T21:00:33.663Z,15.70
2023-07-04T21:05:56.397Z,15.50
2023-07-04T21:11:18.265Z,15.30
2023-07-04T21:16:39.697Z,15.20
2023-07-04T21:22:01.097Z,14.90
2023-07-04T21:27:22.719Z,14.80
2023-07-04T21:32:44.296Z,14.70
2023-07-04T21:38:05.897Z,14.50
2023-07-04T21:43:28.459Z,14.40
2023-07-04T21:48:50.257Z,14.30
2023-07-04T21:54:11.609Z,14.10
2023-07-04T21:59:33.165Z,14.00
2023-07-04T22:04:56.412Z,13.90
2023-07-04T22:10:17.897Z,13.80
2023-07-04T22:15:40.952Z,13.70
2023-07-04T22:21:09.618Z,13.60
2023-07-04T22:26:31.006Z,13.50
2023-07-04T22:31:52.332Z,13.40
2023-07-04T22:37:13.608Z,13.30
2023-07-04T22:42:35.116Z,13.20
2023-07-04T22:47:56.674Z,13.20
2023-07-04T22:53:17.923Z,13.10
2023-07-04T22:58:40.259Z,13.00
2023-07-04T23:04:01.894Z,13.00
2023-07-04T23:09:23.378Z,13.00
2023-07-04T23:14:44.742Z,12.90
2023-07-04T23:20:06.577Z,12.80
2023-07-04T23:25:28.553Z,12.70
2023-07-04T23:30:52.362Z,12.70
2023-07-04T23:36:15.936Z,12.60
2023-07-04T23:41:37.358Z,12.50
2023-07-04T23:46:58.910Z,12.40
2023-07-04T23:52:20.370Z,12.40
2023-07-04T23:57:41.804Z,12.30
